Date,TemperatureHighF,TemperatureAvgF,TemperatureLowF,DewpointHighF,DewpointAvgF,DewpointLowF,HumidityHigh,HumidityAvg,HumidityLow,PressureMaxIn,PressureMinIn,WindSpeedMaxMPH,WindSpeedAvgMPH,GustSpeedMaxMPH,PrecipitationSumIn
2013-3-1,65,54,48,41,38,31,76,55,37,28.33,28.16,10,3,29,0.00
2013-3-2,64,55,47,50,45,40,87,71,51,28.17,27.96,9,3,17,0.00
2013-3-3,59,55,48,53,46,39,99,75,54,28.10,27.82,20,8,35,0.58
2013-3-4,70,56,44,46,42,34,84,61,37,28.31,28.10,6,1,13,0.00
2013-3-5,63,54,49,45,39,35,83,59,39,28.56,28.31,12,4,29,0.00
2013-3-6,67,55,48,44,39,35,70,55,36,28.54,28.30,12,3,21,0.00
2013-3-7,63,56,53,55,50,43,99,79,67,28.30,28.06,9,2,16,0.41
2013-3-8,71,58,53,61,55,52,99,91,59,28.06,27.98,5,1,10,0.02
2013-3-9,72,61,53,63,58,53,99,89,70,27.99,27.84,9,2,17,0.04
2013-3-10,72,64,58,59,55,50,95,75,47,27.93,27.83,8,3,14,0.00
2013-3-11,77,64,56,67,58,53,96,81,57,27.83,27.68,7,2,18,0.00
2013-3-12,74,63,59,56,52,48,82,68,49,27.83,27.69,7,3,17,0.00
2013-3-13,68,60,52,59,54,46,95,78,57,27.88,27.81,15,5,30,0.00
2013-3-14,70,64,60,58,53,47,91,68,46,27.83,27.42,20,10,37,0.00
2013-3-15,69,60,54,50,46,40,71,60,46,27.74,27.51,13,6,27,0.00
2013-3-16,64,56,49,43,40,36,70,55,38,28.11,27.72,10,4,24,0.00
2013-3-17,65,54,47,40,36,33,70,53,33,28.31,28.11,6,2,10,0.00
2013-3-18,60,53,48,51,44,40,91,72,51,28.32,28.09,8,3,16,0.04
2013-3-19,66,60,55,57,53,48,91,78,66,28.11,27.91,16,6,29,0.01
2013-3-20,73,63,54,64,56,50,99,80,50,28.04,27.92,12,4,23,0.00
2013-3-21,69,64,61,59,57,51,91,77,63,27.92,27.65,13,7,26,0.00
2013-3-22,67,61,56,50,43,38,71,52,36,27.88,27.66,16,11,37,0.00
2013-3-23,69,59,48,44,34,22,69,41,20,28.09,27.89,10,4,21,0.00
2013-3-24,66,60,52,55,50,43,81,71,61,28.12,28.05,13,4,18,0.00
2013-3-25,67,62,58,58,55,51,90,80,65,28.06,27.73,16,8,29,0.00
2013-3-26,73,64,59,59,55,52,89,75,53,27.76,27.64,12,5,21,0.00
2013-3-27,70,62,57,60,55,50,90,77,56,27.94,27.76,9,3,22,0.00
2013-3-28,74,63,56,58,54,52,91,75,50,28.17,27.94,8,2,18,0.02
2013-3-29,71,62,54,62,55,52,98,78,59,28.18,28.09,6,1,10,0.00
2013-3-30,79,67,57,64,55,52,91,69,47,28.11,27.91,12,3,22,0.00
2013-3-31,71,65,61,60,56,53,84,73,66,27.95,27.83,13,4,22,0.00